Time;durP1;ratioP1;P1;durP2;ratioP2;P2;SDS_P1;SDS_P2;PMS_P1;PMS_P2;Temp;Humidity;BMP_temperature;BMP_pressure;BME280_temperature;BME280_humidity;BME280_pressure;Samples;Min_cycle;Max_cycle;Signal;HPM_P1;HPM_P2
2021/08/31 00:03:34;;;;;;;13.02;10.25;;;;;;;14.22;67.89;100307.53;10411696;28;20053;-59
2021/08/31 00:08:35;;;;;;;15.25;11.68;;;;;;;14.22;67.63;100312.78;10389960;28;20441;-59
2021/08/31 00:13:37;;;;;;;15.65;11.85;;;;;;;14.18;68.13;100316.59;10394342;28;20057;-59
2021/08/31 00:18:39;;;;;;;19.25;10.63;;;;;;;14.14;68.08;100325.63;10389631;28;20053;-60
2021/08/31 00:23:41;;;;;;;13.88;10.55;;;;;;;14.21;67.67;100332.13;10388650;28;20144;-59
2021/08/31 00:28:43;;;;;;;13.73;10.57;;;;;;;14.25;67.57;100326.56;10404854;28;20550;-60
2021/08/31 00:33:45;;;;;;;18.13;11.93;;;;;;;14.26;67.62;100332.69;10400955;28;20888;-60
2021/08/31 00:38:46;;;;;;;16.15;11.43;;;;;;;14.25;67.22;100334.47;10389427;28;20053;-60
2021/08/31 00:43:49;;;;;;;16.85;9.80;;;;;;;14.29;67.41;100335.09;10410560;28;20081;-59
2021/08/31 00:48:51;;;;;;;19.55;10.75;;;;;;;14.28;67.30;100342.16;10389400;28;20063;-60
2021/08/31 00:53:53;;;;;;;13.63;10.13;;;;;;;14.37;67.24;100340.69;10386766;28;20076;-60
2021/08/31 00:58:55;;;;;;;14.55;10.60;;;;;;;14.35;67.05;100343.41;10386658;28;20144;-60
2021/08/31 01:03:57;;;;;;;16.17;10.45;;;;;;;14.27;67.29;100347.50;10384914;28;20088;-60
2021/08/31 01:08:59;;;;;;;16.10;10.70;;;;;;;14.31;66.92;100341.09;10385864;28;20613;-59
2021/08/31 01:14:01;;;;;;;12.82;9.93;;;;;;;14.37;66.80;100348.59;10386708;28;20051;-59
2021/08/31 01:19:03;;;;;;;15.75;11.07;;;;;;;14.36;67.04;100349.53;10392930;28;20057;-60
2021/08/31 01:24:05;;;;;;;15.27;10.13;;;;;;;14.31;66.93;100335.81;10384739;28;20608;-60
2021/08/31 01:29:06;;;;;;;12.95;10.40;;;;;;;14.21;67.01;100340.88;10387489;28;20676;-59
2021/08/31 01:34:08;;;;;;;13.60;10.40;;;;;;;14.06;67.18;100346.34;10385584;28;20063;-59
2021/08/31 01:39:10;;;;;;;17.05;11.82;;;;;;;13.91;67.19;100358.72;10413987;28;20133;-59
2021/08/31 01:44:12;;;;;;;17.50;11.63;;;;;;;13.71;67.68;100362.69;10393274;28;20064;-60
2021/08/31 01:49:14;;;;;;;16.35;10.95;;;;;;;13.60;67.98;100373.06;10385592;28;20053;-60
2021/08/31 01:54:15;;;;;;;16.92;11.35;;;;;;;13.60;67.78;100373.06;10386031;28;20045;-59
2021/08/31 01:59:17;;;;;;;13.13;10.27;;;;;;;13.56;67.78;100368.09;10404434;28;20512;-59
2021/08/31 02:04:19;;;;;;;19.70;11.68;;;;;;;13.49;67.86;100361.56;10389255;28;20228;-59
2021/08/31 02:09:20;;;;;;;17.42;11.60;;;;;;;13.37;67.99;100367.56;10391858;28;20061;-59
2021/08/31 02:14:22;;;;;;;14.73;10.68;;;;;;;13.30;68.18;100367.13;10404094;28;20559;-60
2021/08/31 02:19:24;;;;;;;17.00;12.38;;;;;;;13.31;68.51;100368.78;10392002;28;20564;-59
2021/08/31 02:24:26;;;;;;;14.10;10.77;;;;;;;13.29;68.84;100359.34;10401911;28;20522;-59
2021/08/31 02:29:27;;;;;;;14.05;11.18;;;;;;;13.29;68.66;100364.59;10393288;28;20054;-59
2021/08/31 02:34:29;;;;;;;13.32;11.18;;;;;;;13.27;68.78;100375.19;10394239;28;20052;-59
2021/08/31 02:39:31;;;;;;;15.38;11.77;;;;;;;13.29;68.89;100369.84;10407217;28;20132;-59
2021/08/31 02:44:34;;;;;;;17.25;11.77;;;;;;;13.22;68.58;100369.41;10395891;28;20053;-59
2021/08/31 02:49:36;;;;;;;15.88;10.80;;;;;;;13.23;68.51;100376.31;10442630;28;20139;-59
2021/08/31 02:54:37;;;;;;;15.52;11.80;;;;;;;13.19;68.59;100368.75;10401390;28;20132;-59
2021/08/31 02:59:39;;;;;;;18.50;12.85;;;;;;;13.11;68.63;100365.78;10423336;28;20073;-59
2021/08/31 03:04:43;;;;;;;16.27;13.38;;;;;;;13.05;68.45;100371.41;10409695;28;20940;-59
2021/08/31 03:09:44;;;;;;;16.08;12.43;;;;;;;13.07;68.53;100377.41;10395642;28;20148;-59
2021/08/31 03:14:46;;;;;;;16.05;10.93;;;;;;;13.18;68.42;100372.31;10393082;28;20132;-59
2021/08/31 03:19:48;;;;;;;16.38;12.77;;;;;;;13.23;68.14;100378.13;10393915;28;20079;-59
2021/08/31 03:24:50;;;;;;;12.77;11.27;;;;;;;13.24;68.15;100382.44;10399732;28;20128;-59
2021/08/31 03:29:51;;;;;;;22.63;12.30;;;;;;;13.22;68.19;100389.56;10391467;28;20084;-59
2021/08/31 03:34:53;;;;;;;17.83;12.20;;;;;;;13.29;68.07;100388.25;10404030;28;20409;-59
2021/08/31 03:39:55;;;;;;;20.02;12.30;;;;;;;13.33;67.81;100395.81;10397367;28;20140;-60
2021/08/31 03:44:56;;;;;;;13.60;10.40;;;;;;;13.42;67.75;100402.25;10404657;28;20135;-60
2021/08/31 03:49:58;;;;;;;18.38;11.70;;;;;;;13.53;67.76;100416.47;10394858;28;20055;-59
2021/08/31 03:55:00;;;;;;;14.40;11.52;;;;;;;13.65;67.56;100425.31;10397166;28;20555;-59
2021/08/31 04:00:04;;;;;;;15.00;10.93;;;;;;;13.73;67.31;100423.03;10391355;28;20060;-59
2021/08/31 04:05:06;;;;;;;16.23;10.20;;;;;;;13.81;67.25;100423.38;10391794;28;20056;-59
2021/08/31 04:10:08;;;;;;;12.95;9.57;;;;;;;13.91;67.22;100436.78;10391444;28;20148;-60
2021/08/31 04:15:11;;;;;;;12.13;9.40;;;;;;;13.94;67.01;100437.44;10389522;28;20509;-59
2021/08/31 04:20:13;;;;;;;14.45;10.15;;;;;;;13.98;66.66;100444.19;10391533;28;20045;-59
2021/08/31 04:25:15;;;;;;;17.17;11.18;;;;;;;14.00;66.74;100452.81;10390940;28;20481;-60
2021/08/31 04:30:17;;;;;;;12.57;7.10;;;;;;;13.93;66.93;100453.28;10390759;28;20509;-59
2021/08/31 04:35:18;;;;;;;12.25;6.78;;;;;;;13.77;66.97;100469.22;10391307;28;20184;-59
2021/08/31 04:40:21;;;;;;;8.63;6.30;;;;;;;13.65;67.35;100470.88;10389566;28;20536;-59
2021/08/31 04:45:23;;;;;;;10.18;6.75;;;;;;;13.73;67.10;100479.09;10408677;28;20136;-59
2021/08/31 04:50:24;;;;;;;9.82;6.45;;;;;;;13.82;67.09;100476.81;10390977;28;20149;-59
2021/08/31 04:55:27;;;;;;;9.18;5.90;;;;;;;13.82;66.76;100468.94;10391604;28;20055;-59
2021/08/31 05:00:28;;;;;;;9.93;6.18;;;;;;;13.84;66.89;100470.50;10396693;28;20064;-59
2021/08/31 05:05:31;;;;;;;11.10;6.32;;;;;;;13.90;66.74;100462.25;10389112;28;20075;-59
2021/08/31 05:10:32;;;;;;;13.63;7.03;;;;;;;13.95;66.54;100469.81;10389739;28;20395;-59
2021/08/31 05:15:34;;;;;;;9.63;5.63;;;;;;;14.16;66.18;100477.16;10389570;28;20137;-60
2021/08/31 05:20:38;;;;;;;11.25;6.07;;;;;;;14.46;65.95;100467.22;10405597;28;20053;-59
2021/08/31 05:25:39;;;;;;;8.30;6.47;;;;;;;14.73;65.45;100475.06;10387354;28;20071;-60
2021/08/31 05:30:41;;;;;;;7.85;5.55;;;;;;;14.96;65.25;100481.41;10426064;28;20535;-60
2021/08/31 05:35:43;;;;;;;11.27;6.10;;;;;;;15.15;64.89;100471.25;10387579;28;20482;-60
2021/08/31 05:40:45;;;;;;;11.32;6.00;;;;;;;15.37;64.42;100471.41;10401897;28;20076;-62
2021/08/31 05:45:46;;;;;;;10.80;5.80;;;;;;;15.68;64.03;100475.38;10400349;28;20068;-60
2021/08/31 05:50:48;;;;;;;8.88;5.70;;;;;;;15.90;63.36;100483.41;10391352;28;20049;-60
2021/08/31 05:55:50;;;;;;;11.40;5.82;;;;;;;16.08;62.99;100484.72;10397084;28;20048;-60
2021/08/31 06:00:52;;;;;;;8.23;5.35;;;;;;;16.33;62.39;100489.00;10401711;28;20547;-61
2021/08/31 06:05:54;;;;;;;8.75;5.63;;;;;;;16.43;61.99;100487.34;10386417;28;20049;-60
2021/08/31 06:10:56;;;;;;;6.95;5.00;;;;;;;16.27;62.62;100489.47;10389054;28;20087;-60
2021/08/31 06:15:58;;;;;;;8.02;4.97;;;;;;;16.17;62.88;100508.63;10385865;28;20073;-60
2021/08/31 06:21:00;;;;;;;9.80;5.47;;;;;;;16.33;62.72;100503.03;10386725;28;20995;-60
2021/08/31 06:26:02;;;;;;;7.88;5.07;;;;;;;16.54;62.11;100508.56;10394153;28;20808;-60
2021/08/31 06:31:04;;;;;;;7.53;5.20;;;;;;;16.57;62.01;100505.69;10406620;28;20164;-60
2021/08/31 06:36:06;;;;;;;8.18;5.68;;;;;;;16.47;61.50;100517.91;10384956;28;20137;-59
2021/08/31 06:41:09;;;;;;;7.63;5.75;;;;;;;16.70;61.31;100520.50;10385158;28;20583;-60
2021/08/31 06:46:11;;;;;;;7.75;4.82;;;;;;;17.08;61.15;100514.91;10385623;28;20053;-62
2021/08/31 06:51:14;;;;;;;8.63;5.20;;;;;;;17.54;60.06;100506.91;10410240;28;20053;-63
2021/08/31 06:56:16;;;;;;;10.68;5.07;;;;;;;17.96;58.83;100513.19;10387185;28;20589;-63
2021/08/31 07:01:18;;;;;;;9.30;5.10;;;;;;;18.22;58.54;100509.31;10384404;28;20419;-63
2021/08/31 07:06:20;;;;;;;8.63;4.95;;;;;;;18.20;57.36;100516.53;10385797;28;20045;-63
2021/08/31 07:11:22;;;;;;;7.57;4.60;;;;;;;18.09;57.33;100522.66;10387974;28;20061;-63
2021/08/31 07:16:23;;;;;;;9.07;5.10;;;;;;;18.18;56.91;100526.38;10384802;28;20072;-63
2021/08/31 07:21:25;;;;;;;8.80;5.05;;;;;;;18.23;56.98;100532.16;10386902;28;20144;-63
2021/08/31 07:26:27;;;;;;;7.40;4.60;;;;;;;18.40;56.37;100528.97;10410090;28;20080;-63
2021/08/31 07:31:30;;;;;;;6.57;4.60;;;;;;;18.71;55.91;100532.56;10423224;28;20076;-63
2021/08/31 07:36:32;;;;;;;7.55;4.57;;;;;;;19.13;55.31;100532.44;10405145;28;20128;-63
2021/08/31 07:41:34;;;;;;;7.63;6.50;;;;;;;19.38;53.68;100537.28;10400981;28;20073;-63
2021/08/31 07:46:36;;;;;;;8.88;6.00;;;;;;;19.54;52.35;100539.47;10401400;28;20140;-63
2021/08/31 07:51:37;;;;;;;10.70;5.93;;;;;;;19.77;51.84;100540.06;10399703;28;20048;-63
2021/08/31 07:56:40;;;;;;;10.45;5.80;;;;;;;19.84;51.04;100538.59;10401138;28;20048;-62
2021/08/31 08:01:42;;;;;;;8.00;5.78;;;;;;;20.14;50.82;100538.50;10392736;28;20482;-63
2021/08/31 08:06:44;;;;;;;7.28;5.38;;;;;;;20.18;50.49;100545.22;10390603;28;20045;-63
2021/08/31 08:11:45;;;;;;;8.25;5.70;;;;;;;20.49;48.47;100537.97;10388619;28;20049;-63
2021/08/31 08:16:47;;;;;;;6.38;5.32;;;;;;;20.85;48.49;100555.88;10419276;28;20907;-63
2021/08/31 08:21:49;;;;;;;8.77;5.90;;;;;;;21.05;48.01;100553.06;10389242;28;20152;-63
2021/08/31 08:26:52;;;;;;;6.63;5.30;;;;;;;20.88;48.01;100555.63;10389774;28;20140;-63
2021/08/31 08:31:55;;;;;;;9.30;6.25;;;;;;;21.01;47.41;100559.63;10419229;28;20052;-64
2021/08/31 08:36:58;;;;;;;8.52;5.65;;;;;;;20.85;46.87;100563.88;10430165;28;20049;-63
2021/08/31 08:42:04;;;;;;;7.47;5.38;;;;;;;20.32;48.37;100568.72;10430486;28;20298;-63
2021/08/31 08:47:06;;;;;;;7.72;5.57;;;;;;;19.99;48.82;100571.78;10413494;28;20055;-63
2021/08/31 08:52:08;;;;;;;6.38;5.20;;;;;;;20.04;49.50;100570.38;10390165;28;20061;-63
2021/08/31 08:57:10;;;;;;;7.97;5.25;;;;;;;20.32;49.02;100570.53;10389648;28;20109;-63
2021/08/31 09:02:44;;;;;;;11.18;5.70;;;;;;;20.09;48.61;100583.25;10428720;28;20116;-63
2021/08/31 09:07:45;;;;;;;9.20;6.00;;;;;;;19.97;49.54;100584.34;10396963;28;20093;-63
2021/08/31 09:12:50;;;;;;;8.80;5.63;;;;;;;19.94;49.85;100576.63;10391059;28;20108;-63
2021/08/31 09:18:08;;;;;;;7.93;5.80;;;;;;;19.95;49.94;100579.16;10389031;28;20140;-63
2021/08/31 09:23:15;;;;;;;9.35;5.90;;;;;;;20.27;50.35;100582.41;10388899;28;20059;-67
2021/08/31 09:28:18;;;;;;;7.43;5.97;;;;;;;20.39;49.38;100583.16;10388414;28;20131;-66
2021/08/31 09:33:20;;;;;;;8.10;5.75;;;;;;;20.40;50.07;100586.66;10384139;28;20054;-73
2021/08/31 09:38:21;;;;;;;10.00;5.68;;;;;;;20.44;49.04;100582.75;10390832;28;20056;-73
2021/08/31 09:43:25;;;;;;;7.93;5.72;;;;;;;20.74;48.67;100580.78;10402921;28;20586;-72
2021/08/31 09:48:27;;;;;;;12.48;6.10;;;;;;;21.40;47.95;100571.06;10390469;28;20054;-64
2021/08/31 09:53:29;;;;;;;6.63;4.80;;;;;;;21.57;46.75;100575.63;10386512;28;20067;-71
2021/08/31 09:58:34;;;;;;;7.72;5.35;;;;;;;21.75;45.77;100573.00;10385706;28;20131;-72
2021/08/31 10:03:38;;;;;;;8.80;5.40;;;;;;;22.22;44.49;100576.41;10427215;28;20077;-71
2021/08/31 10:08:41;;;;;;;7.88;5.00;;;;;;;22.37;43.41;100574.91;10411610;28;20153;-71
2021/08/31 10:13:44;;;;;;;7.05;4.80;;;;;;;22.39;42.56;100563.09;10386306;28;20162;-72
2021/08/31 10:18:45;;;;;;;6.07;4.82;;;;;;;22.02;44.24;100557.03;10427182;28;20084;-71
2021/08/31 10:23:48;;;;;;;8.05;5.18;;;;;;;22.68;42.18;100558.38;10421278;28;20132;-72
2021/08/31 10:28:52;;;;;;;7.05;5.03;;;;;;;21.92;42.80;100566.06;10427223;28;20146;-71
2021/08/31 10:33:53;;;;;;;9.02;5.30;;;;;;;21.47;44.19;100571.31;10407778;28;20148;-71
2021/08/31 10:38:55;;;;;;;7.05;4.97;;;;;;;21.71;44.11;100571.63;10426560;28;20053;-71
2021/08/31 10:43:57;;;;;;;7.40;5.30;;;;;;;22.39;43.08;100556.94;10401939;28;20143;-71
2021/08/31 10:49:01;;;;;;;7.40;5.30;;;;;;;22.64;41.77;100556.16;10426514;28;20052;-72
2021/08/31 10:54:03;;;;;;;7.90;5.53;;;;;;;22.34;41.99;100575.22;10419222;28;20053;-71
2021/08/31 10:59:05;;;;;;;7.93;5.40;;;;;;;22.10;42.73;100572.28;10425746;28;20139;-71
2021/08/31 11:04:25;;;;;;;6.38;5.20;;;;;;;21.41;44.28;100569.25;10427212;28;20379;-72
2021/08/31 11:09:27;;;;;;;;;;;;;;;20.92;45.75;100568.50;10434714;28;20306;-71
2021/08/31 11:14:50;;;;;;;8.15;5.38;;;;;;;21.20;44.70;100571.22;10434504;28;19925;-71
2021/08/31 11:19:56;;;;;;;8.93;5.70;;;;;;;21.61;43.80;100570.84;10434274;28;20087;-71
2021/08/31 11:24:57;;;;;;;6.10;4.80;;;;;;;22.13;42.99;100569.34;10415954;28;20145;-72
2021/08/31 11:29:59;;;;;;;6.90;5.13;;;;;;;22.44;42.61;100571.50;10433641;28;20412;-71
2021/08/31 11:35:02;;;;;;;8.57;5.35;;;;;;;22.14;43.10;100569.19;10433531;28;20051;-71
2021/08/31 11:40:05;;;;;;;7.95;5.85;;;;;;;21.71;44.10;100580.47;10391872;28;20133;-72
2021/08/31 11:45:07;;;;;;;7.10;5.32;;;;;;;21.64;44.09;100584.69;10392381;28;20068;-71
2021/08/31 11:50:09;;;;;;;8.32;5.88;;;;;;;21.48;45.00;100591.59;10392041;28;20123;-71
2021/08/31 11:55:11;;;;;;;10.38;6.53;;;;;;;21.25;45.75;100584.94;10391504;28;20137;-71
2021/08/31 12:00:14;;;;;;;7.72;6.43;;;;;;;21.35;45.55;100581.31;10432545;28;20053;-71
2021/08/31 12:05:17;;;;;;;10.30;6.80;;;;;;;21.84;45.44;100575.63;10432310;28;20056;-71
2021/08/31 12:10:22;;;;;;;9.77;6.57;;;;;;;22.14;44.42;100569.19;10429324;28;20151;-71
2021/08/31 12:15:25;;;;;;;10.70;8.25;;;;;;;22.02;45.05;100586.34;10390952;28;20514;-71
2021/08/31 12:20:27;;;;;;;11.77;8.25;;;;;;;21.66;45.15;100582.72;10431660;28;20053;-71
2021/08/31 12:25:58;;;;;;;11.32;9.10;;;;;;;21.62;44.55;100586.66;10431391;28;20053;-71
2021/08/31 12:31:12;;;;;;;14.20;10.30;;;;;;;21.61;45.07;100589.47;10426936;28;20068;-71
2021/08/31 12:36:14;;;;;;;16.90;11.52;;;;;;;21.67;45.76;100592.41;10429733;28;20154;-71
2021/08/31 12:41:24;;;;;;;15.02;11.77;;;;;;;21.63;46.15;100591.00;10428537;28;20121;-71
2021/08/31 12:46:31;;;;;;;17.13;13.18;;;;;;;21.81;45.90;100594.56;10413820;28;20144;-72
2021/08/31 12:51:39;;;;;;;19.40;13.85;;;;;;;21.72;45.95;100590.13;10408587;28;20053;-71
2021/08/31 12:56:57;;;;;;;19.45;13.48;;;;;;;21.53;46.34;100595.53;10389869;28;20049;-72
2021/08/31 13:01:59;;;;;;;19.02;13.75;;;;;;;21.59;46.41;100589.63;10430291;28;20667;-71
2021/08/31 13:07:12;;;;;;;21.10;14.57;;;;;;;21.27;47.37;100599.78;10417041;28;20100;-71
2021/08/31 13:12:16;;;;;;;21.02;14.82;;;;;;;21.17;47.42;100592.81;10389124;28;20140;-71
2021/08/31 13:17:18;;;;;;;19.23;13.90;;;;;;;21.29;47.03;100594.31;10388399;28;20049;-71
2021/08/31 13:22:20;;;;;;;21.45;14.45;;;;;;;21.06;47.41;100597.31;10401366;28;20129;-71
2021/08/31 13:27:22;;;;;;;21.02;15.57;;;;;;;20.79;48.33;100599.00;10402423;28;20534;-71
2021/08/31 13:32:24;;;;;;;20.73;14.30;;;;;;;20.94;47.68;100598.44;10428394;28;20583;-71
2021/08/31 13:37:25;;;;;;;18.40;14.20;;;;;;;21.26;47.80;100602.56;10387726;28;20554;-71
2021/08/31 13:42:27;;;;;;;20.67;14.20;;;;;;;21.30;47.67;100591.50;10387746;28;20542;-71
2021/08/31 13:47:29;;;;;;;20.75;14.13;;;;;;;21.47;47.17;100587.28;10387708;28;20685;-71
2021/08/31 13:52:30;;;;;;;21.80;13.50;;;;;;;22.32;46.14;100578.03;10402078;28;20147;-71
2021/08/31 13:57:32;;;;;;;17.67;12.70;;;;;;;22.73;45.05;100570.41;10426904;28;20114;-71
2021/08/31 14:02:34;;;;;;;18.83;12.93;;;;;;;22.94;44.25;100576.28;10401697;28;20129;-72
2021/08/31 14:07:36;;;;;;;17.88;12.68;;;;;;;22.72;44.46;100568.75;10427550;28;20144;-71
2021/08/31 14:12:38;;;;;;;16.13;11.63;;;;;;;22.28;44.87;100578.47;10427629;28;20159;-70
2021/08/31 14:17:40;;;;;;;15.35;10.68;;;;;;;21.82;45.23;100590.09;10427069;28;20574;-71
2021/08/31 14:22:41;;;;;;;14.70;10.73;;;;;;;21.76;45.59;100590.69;10426464;28;20136;-72
2021/08/31 14:27:44;;;;;;;12.20;8.55;;;;;;;22.21;44.53;100583.56;10427042;28;20220;-71
2021/08/31 14:32:46;;;;;;;12.82;7.57;;;;;;;22.48;42.94;100583.53;10396071;28;20162;-71
2021/08/31 14:37:48;;;;;;;9.15;6.40;;;;;;;22.53;42.63;100583.91;10388073;28;20221;-71
2021/08/31 14:42:50;;;;;;;9.15;5.88;;;;;;;23.01;40.83;100585.34;10408876;28;20053;-71
2021/08/31 14:47:51;;;;;;;9.18;6.25;;;;;;;22.91;41.66;100582.75;10385682;28;20054;-71
2021/08/31 14:52:53;;;;;;;8.15;5.60;;;;;;;22.85;41.42;100585.22;10423868;28;20052;-71
2021/08/31 14:57:55;;;;;;;7.32;5.57;;;;;;;22.57;41.00;100584.44;10412881;28;20495;-71
2021/08/31 15:02:56;;;;;;;8.15;5.90;;;;;;;22.82;40.92;100581.00;10395605;28;20425;-72
2021/08/31 15:07:59;;;;;;;7.80;6.28;;;;;;;22.72;41.26;100574.91;10392709;28;20049;-71
2021/08/31 15:13:00;;;;;;;8.50;5.72;;;;;;;23.00;40.04;100573.00;10384863;28;20093;-71
2021/08/31 15:18:02;;;;;;;7.63;4.93;;;;;;;22.97;38.61;100574.16;10383709;28;20125;-71
2021/08/31 15:23:04;;;;;;;7.20;4.55;;;;;;;22.74;38.60;100561.47;10385605;28;20049;-71
2021/08/31 15:28:06;;;;;;;6.78;4.85;;;;;;;22.56;39.47;100564.94;10384907;28;20072;-71
2021/08/31 15:33:08;;;;;;;6.13;4.20;;;;;;;22.31;39.39;100575.53;10396837;28;20164;-71
2021/08/31 15:38:09;;;;;;;8.90;4.82;;;;;;;22.06;39.67;100560.25;10385180;28;20124;-71
2021/08/31 15:43:11;;;;;;;7.65;4.40;;;;;;;22.06;39.88;100562.94;10401202;28;20055;-71
2021/08/31 15:48:13;;;;;;;6.90;4.32;;;;;;;22.22;39.68;100568.44;10397551;28;20058;-71
2021/08/31 15:53:16;;;;;;;7.32;4.20;;;;;;;22.52;39.23;100560.91;10398564;28;20194;-71
2021/08/31 15:58:18;;;;;;;5.88;3.90;;;;;;;22.93;37.58;100561.25;10431069;28;20124;-70
2021/08/31 16:03:20;;;;;;;6.78;4.13;;;;;;;23.12;37.27;100566.41;10432464;28;20136;-70
2021/08/31 16:08:22;;;;;;;11.68;4.18;;;;;;;22.98;37.04;100564.31;10431416;28;20497;-70
2021/08/31 16:13:23;;;;;;;8.43;4.03;;;;;;;22.75;37.24;100563.13;10429959;28;20055;-69
2021/08/31 16:18:25;;;;;;;5.50;3.90;;;;;;;22.45;37.32;100577.66;10402010;28;20132;-69
2021/08/31 16:23:28;;;;;;;5.57;3.88;;;;;;;22.38;37.99;100574.75;10394806;28;20187;-69
2021/08/31 16:28:31;;;;;;;5.43;4.40;;;;;;;22.29;38.44;100573.00;10431393;28;20136;-69
2021/08/31 16:33:33;;;;;;;5.35;4.10;;;;;;;22.00;39.12;100569.66;10430764;28;20060;-70
2021/08/31 16:38:36;;;;;;;8.60;4.60;;;;;;;21.89;39.80;100576.03;10398827;28;20081;-70
2021/08/31 16:43:39;;;;;;;7.97;4.38;;;;;;;22.86;38.87;100570.91;10390404;28;20128;-70
2021/08/31 16:48:40;;;;;;;7.20;4.50;;;;;;;23.05;38.12;100563.53;10430805;28;20135;-70
2021/08/31 16:53:42;;;;;;;5.88;4.25;;;;;;;22.64;38.69;100569.50;10393679;28;20123;-69
2021/08/31 16:58:44;;;;;;;11.02;5.30;;;;;;;22.35;39.07;100567.06;10389818;28;20088;-70
2021/08/31 17:03:47;;;;;;;7.90;5.15;;;;;;;22.06;39.94;100565.59;10429410;28;20409;-70
2021/08/31 17:08:48;;;;;;;9.98;5.47;;;;;;;21.82;40.01;100566.94;10397886;28;20577;-70
2021/08/31 17:13:50;;;;;;;8.35;5.40;;;;;;;21.66;40.24;100574.72;10421024;28;20057;-70
2021/08/31 17:18:52;;;;;;;9.55;5.65;;;;;;;21.36;40.16;100569.66;10388003;28;20603;-70
2021/08/31 17:23:54;;;;;;;7.97;5.32;;;;;;;21.21;40.76;100583.56;10387103;28;20133;-70
2021/08/31 17:28:55;;;;;;;8.43;5.65;;;;;;;21.06;40.79;100593.78;10419419;28;20128;-70
2021/08/31 17:33:58;;;;;;;7.07;5.30;;;;;;;20.87;41.51;100591.16;10386777;28;20071;-70
2021/08/31 17:39:00;;;;;;;7.70;5.63;;;;;;;20.76;41.50;100589.50;10411316;28;20064;-70
2021/08/31 17:44:02;;;;;;;9.55;5.65;;;;;;;20.45;42.11;100601.19;10402852;28;20128;-70
2021/08/31 17:49:04;;;;;;;10.55;6.35;;;;;;;20.23;42.48;100602.28;10387333;28;20049;-70
2021/08/31 17:54:13;;;;;;;5.32;3.22;;;;;;;19.99;43.36;100607.09;10425874;28;20053;-70
2021/08/31 17:59:15;;;;;;;9.13;4.10;;;;;;;19.80;43.60;100611.47;10426318;28;20468;-70
2021/08/31 18:04:18;;;;;;;6.55;4.00;;;;;;;19.64;44.37;100609.34;10425984;28;20075;-70
2021/08/31 18:09:20;;;;;;;6.00;3.88;;;;;;;19.48;45.35;100618.75;10427237;28;20462;-70
2021/08/31 18:14:21;;;;;;;7.70;4.47;;;;;;;19.35;45.54;100622.44;10426644;28;20064;-70
2021/08/31 18:19:23;;;;;;;6.95;4.43;;;;;;;19.16;46.30;100616.16;10427438;28;20139;-70
2021/08/31 18:24:25;;;;;;;7.10;3.25;;;;;;;18.85;46.88;100623.16;10388180;28;20128;-70
2021/08/31 18:29:28;;;;;;;6.47;3.63;;;;;;;18.63;47.71;100633.84;10385947;28;20052;-71
2021/08/31 18:34:30;;;;;;;10.57;4.78;;;;;;;18.38;47.99;100642.13;10386083;28;20089;-70
2021/08/31 18:39:32;;;;;;;9.38;6.90;;;;;;;18.36;48.60;100646.72;10426787;28;20136;-70
2021/08/31 18:44:34;;;;;;;9.50;7.10;;;;;;;18.22;49.10;100649.63;10396590;28;20561;-70
2021/08/31 18:49:36;;;;;;;9.30;6.25;;;;;;;17.94;50.72;100650.09;10386776;28;21016;-70
2021/08/31 18:54:38;;;;;;;11.20;6.22;;;;;;;17.79;51.90;100665.38;10426719;28;20071;-70
2021/08/31 18:59:40;;;;;;;8.95;6.07;;;;;;;17.57;52.71;100666.19;10421196;28;20045;-70
2021/08/31 19:04:41;;;;;;;10.52;5.93;;;;;;;17.42;52.63;100663.88;10399625;28;20049;-70
2021/08/31 19:09:43;;;;;;;8.13;6.07;;;;;;;17.31;53.33;100679.69;10422604;28;21204;-70
2021/08/31 19:14:45;;;;;;;9.77;6.28;;;;;;;17.09;54.14;100684.91;10419788;28;20136;-70
2021/08/31 19:19:47;;;;;;;8.48;6.20;;;;;;;16.97;54.26;100691.94;10383936;28;20136;-71
2021/08/31 19:24:49;;;;;;;8.88;5.97;;;;;;;16.84;54.92;100694.66;10425530;28;20970;-70
2021/08/31 19:29:51;;;;;;;9.38;5.80;;;;;;;16.66;56.04;100697.78;10407804;28;20049;-70
2021/08/31 19:34:52;;;;;;;10.57;6.45;;;;;;;16.51;56.10;100694.47;10392097;28;20151;-70
2021/08/31 19:39:54;;;;;;;11.02;6.55;;;;;;;16.43;56.68;100693.28;10392931;28;20084;-69
2021/08/31 19:44:56;;;;;;;10.27;7.00;;;;;;;16.33;56.95;100698.38;10398637;28;20124;-70
2021/08/31 19:50:01;;;;;;;13.70;7.00;;;;;;;16.19;57.41;100704.66;10400909;28;20053;-70
2021/08/31 19:55:06;;;;;;;8.57;6.32;;;;;;;16.09;57.77;100695.69;10407584;28;20140;-70
2021/08/31 20:00:09;;;;;;;14.65;7.00;;;;;;;15.90;58.50;100707.63;10423434;28;20080;-69
2021/08/31 20:05:11;;;;;;;12.10;7.68;;;;;;;15.76;58.13;100713.03;10432680;28;20134;-70
2021/08/31 20:10:13;;;;;;;12.00;6.85;;;;;;;15.61;59.07;100717.56;10411675;28;20066;-69
2021/08/31 20:15:14;;;;;;;13.52;7.88;;;;;;;15.61;59.12;100714.94;10425049;28;20151;-70
2021/08/31 20:20:16;;;;;;;15.20;8.50;;;;;;;15.61;59.50;100720.22;10417552;28;20136;-70
2021/08/31 20:25:18;;;;;;;12.10;7.50;;;;;;;15.47;59.97;100728.16;10405620;28;20454;-70
2021/08/31 20:30:19;;;;;;;11.73;7.75;;;;;;;15.32;59.83;100737.94;10389549;28;20042;-70
2021/08/31 20:35:22;;;;;;;11.40;7.53;;;;;;;15.25;60.27;100739.28;10390391;28;20389;-69
2021/08/31 20:40:23;;;;;;;16.77;7.88;;;;;;;15.22;60.46;100738.66;10404042;28;20077;-69
2021/08/31 20:45:25;;;;;;;9.45;7.68;;;;;;;15.17;60.85;100744.22;10414811;28;20213;-70
2021/08/31 20:50:27;;;;;;;12.20;7.88;;;;;;;15.08;60.78;100747.44;10389971;28;20132;-64
2021/08/31 20:55:29;;;;;;;11.55;7.72;;;;;;;14.99;61.28;100760.38;10408253;28;20140;-65
2021/08/31 21:00:30;;;;;;;12.48;7.93;;;;;;;14.94;61.41;100762.50;10430273;28;21107;-65
2021/08/31 21:05:32;;;;;;;12.75;7.97;;;;;;;14.90;61.37;100768.91;10420487;28;20518;-65
2021/08/31 21:10:34;;;;;;;12.05;7.88;;;;;;;14.81;61.58;100774.75;10390322;28;20273;-65
2021/08/31 21:15:36;;;;;;;11.10;8.20;;;;;;;14.79;61.83;100779.25;10389455;28;20723;-65
2021/08/31 21:20:38;;;;;;;13.07;8.50;;;;;;;14.67;61.97;100778.25;10388667;28;20051;-65
2021/08/31 21:25:40;;;;;;;12.32;8.60;;;;;;;14.61;62.31;100776.00;10388886;28;20055;-65
2021/08/31 21:30:42;;;;;;;13.73;8.55;;;;;;;14.54;62.30;100780.81;10389110;28;20152;-67
2021/08/31 21:35:44;;;;;;;15.07;8.63;;;;;;;14.49;62.62;100782.88;10397265;28;20063;-66
2021/08/31 21:40:46;;;;;;;9.90;7.97;;;;;;;14.41;62.58;100785.09;10388708;28;20125;-65
2021/08/31 21:45:47;;;;;;;13.63;8.57;;;;;;;14.47;62.42;100794.44;10387704;28;20094;-66
2021/08/31 21:50:49;;;;;;;14.55;8.65;;;;;;;14.41;62.62;100803.53;10389434;28;20051;-66
2021/08/31 21:55:51;;;;;;;12.45;8.45;;;;;;;14.32;62.71;100800.63;10386832;28;20083;-65
2021/08/31 22:00:53;;;;;;;12.77;8.77;;;;;;;14.36;62.80;100808.25;10388781;28;20152;-65
2021/08/31 22:05:55;;;;;;;12.82;8.93;;;;;;;14.35;62.44;100821.50;10401190;28;20537;-66
2021/08/31 22:10:56;;;;;;;14.00;8.60;;;;;;;14.41;62.84;100816.69;10387822;28;20144;-66
2021/08/31 22:15:58;;;;;;;14.35;8.43;;;;;;;14.45;62.66;100823.44;10385446;28;20126;-65
2021/08/31 22:21:00;;;;;;;12.77;8.38;;;;;;;14.52;62.31;100829.22;10387013;28;20050;-65
2021/08/31 22:26:02;;;;;;;12.38;8.70;;;;;;;14.49;62.43;100829.44;10404943;28;20064;-65
2021/08/31 22:31:04;;;;;;;12.25;8.73;;;;;;;14.41;62.60;100829.84;10388597;28;20050;-66
2021/08/31 22:36:05;;;;;;;13.52;8.32;;;;;;;14.35;62.68;100835.47;10386413;28;20505;-66
2021/08/31 22:41:07;;;;;;;17.45;8.50;;;;;;;14.36;62.74;100834.56;10386398;28;20799;-65
2021/08/31 22:46:09;;;;;;;14.27;8.35;;;;;;;14.19;63.17;100837.34;10386025;28;20045;-65
2021/08/31 22:51:11;;;;;;;14.73;8.85;;;;;;;14.23;63.11;100832.75;10410674;28;20041;-65
2021/08/31 22:56:13;;;;;;;13.60;8.90;;;;;;;14.23;63.12;100838.88;10386339;28;20057;-65
2021/08/31 23:01:14;;;;;;;17.15;9.05;;;;;;;14.02;63.11;100834.91;10387647;28;20144;-66